Time;durP1;ratioP1;P1;durP2;ratioP2;P2;SDS_P1;SDS_P2;PMS_P1;PMS_P2;Temp;Humidity;BMP_temperature;BMP_pressure;BME280_temperature;BME280_humidity;BME280_pressure;Samples;Min_cycle;Max_cycle;Signal;HPM_P1;HPM_P2
2022/04/07 00:00:34;;;;;;;;;;;8.90;99.90;;;8.12;100.00;95847.41;5034752;28;19924;-52
2022/04/07 00:03:00;;;;;;;;;;;8.80;99.90;;;7.95;100.00;95841.25;5036141;28;19925;-48
2022/04/07 00:05:26;;;;;;;;;;;8.60;99.90;;;7.81;100.00;95841.94;5036231;28;19925;-50
2022/04/07 00:07:51;;;;;;;;;;;8.40;99.90;;;7.71;100.00;95845.97;5035042;28;20274;-49
2022/04/07 00:10:18;;;;;;;;;;;8.40;99.90;;;7.67;100.00;95841.81;5033895;28;20390;-52
2022/04/07 00:12:43;;;;;;;;;;;8.30;99.90;;;7.61;100.00;95835.09;5037741;28;19944;-51
2022/04/07 00:15:10;;;;;;;;;;;8.30;99.90;;;7.58;100.00;95848.34;5035986;28;20520;-51
2022/04/07 00:17:36;;;;;;;;;;;8.20;99.90;;;7.50;100.00;95833.91;5035415;28;19917;-49
2022/04/07 00:20:02;;;;;;;;;;;8.20;99.90;;;7.45;100.00;95835.00;5036078;28;20323;-50
2022/04/07 00:22:28;;;;;;;;;;;8.10;99.90;;;7.23;100.00;95810.75;5029094;28;19971;-51
2022/04/07 00:24:54;;;;;;;;;;;8.00;99.90;;;7.41;100.00;95836.09;5038053;28;19956;-50
2022/04/07 00:27:19;;;;;;;;;;;8.00;99.90;;;7.44;100.00;95829.81;5037488;28;19935;-50
2022/04/07 00:29:45;;;;;;;;;;;8.00;99.90;;;7.44;100.00;95829.81;5036324;28;20414;-51
2022/04/07 00:32:10;;;;;;;;;;;8.10;99.90;;;7.48;100.00;95822.66;5037090;28;20367;-49
2022/04/07 00:34:37;;;;;;;;;;;8.20;99.90;;;7.51;100.00;95817.28;5036665;28;20631;-51
2022/04/07 00:37:02;;;;;;;;;;;8.20;99.90;;;7.63;100.00;95824.53;5034878;28;19939;-52
2022/04/07 00:39:28;;;;;;;;;;;8.30;99.90;;;7.71;100.00;95805.75;5028786;28;19929;-50
2022/04/07 00:41:54;;;;;;;;;;;8.30;99.90;;;7.83;100.00;95815.63;5036444;28;20019;-50
2022/04/07 00:44:22;;;;;;;;;;;8.50;99.90;;;7.93;100.00;95813.38;5038360;28;19925;-52
2022/04/07 00:46:47;;;;;;;;;;;8.50;99.90;;;7.99;100.00;95816.53;5035719;28;20277;-50
2022/04/07 00:49:13;;;;;;;;;;;8.60;99.90;;;8.07;100.00;95803.00;5038357;28;19928;-49
2022/04/07 00:51:40;;;;;;;;;;;8.70;99.90;;;8.14;100.00;95812.25;5034263;28;20048;-50
2022/04/07 00:54:07;;;;;;;;;;;8.70;99.90;;;8.20;100.00;95806.69;5019604;28;19924;-48
2022/04/07 00:56:35;;;;;;;;;;;8.80;99.90;;;8.21;100.00;95794.41;5030288;28;19977;-48
2022/04/07 00:59:00;;;;;;;;;;;8.90;99.90;;;8.32;100.00;95797.28;5034754;28;19920;-47
2022/04/07 01:01:28;;;;;;;;;;;8.90;99.90;;;8.35;100.00;95802.38;5035441;28;20506;-50
2022/04/07 01:03:54;;;;;;;;;;;8.90;99.90;;;8.36;100.00;95793.59;5030963;28;20222;-51
2022/04/07 01:06:20;;;;;;;;;;;9.00;99.90;;;8.35;100.00;95789.25;5031418;28;19935;-51
2022/04/07 01:08:46;;;;;;;;;;;8.90;99.90;;;8.35;100.00;95786.63;5034359;28;19917;-51
2022/04/07 01:11:12;;;;;;;;;;;8.90;99.90;;;8.26;100.00;95783.66;5032585;28;19921;-49
2022/04/07 01:13:50;;;;;;;;;;;8.90;99.90;;;8.17;100.00;95767.47;5031949;28;19986;-51
2022/04/07 01:16:20;;;;;;;;;;;8.80;99.90;;;8.05;100.00;95760.22;5036520;28;19978;-48
2022/04/07 01:18:46;;;;;;;;;;;8.70;99.90;;;8.07;100.00;95774.13;5033432;28;19951;-49
2022/04/07 01:21:19;;;;;;;;;;;8.60;99.90;;;8.00;100.00;95765.75;5031833;28;20388;-49
2022/04/07 01:23:55;;;;;;;;;;;8.60;99.90;;;7.99;100.00;95769.28;5031413;28;19917;-49
2022/04/07 01:26:21;;;;;;;;;;;8.60;99.90;;;8.01;100.00;95767.41;5030988;28;19983;-47
2022/04/07 01:28:48;;;;;;;;;;;8.60;99.90;;;8.06;100.00;95759.31;5034470;28;19940;-48
2022/04/07 01:31:14;;;;;;;;;;;8.60;99.90;;;8.09;100.00;95758.28;5035114;28;19937;-49
2022/04/07 01:33:40;;;;;;;;;;;8.70;99.90;;;8.09;100.00;95763.53;5032916;28;19983;-48
2022/04/07 01:36:05;;;;;;;;;;;8.70;99.90;;;8.02;100.00;95744.63;5028516;28;20351;-48
2022/04/07 01:38:31;;;;;;;;;;;8.60;99.90;;;7.89;100.00;95741.81;5025986;28;19925;-53
2022/04/07 01:40:57;;;;;;;;;;;8.50;99.90;;;7.74;100.00;95740.00;5030725;28;19921;-47
2022/04/07 01:43:23;;;;;;;;;;;8.40;99.90;;;7.60;100.00;95738.09;5031751;28;20393;-49
2022/04/07 01:45:48;;;;;;;;;;;8.20;99.90;;;7.45;100.00;95737.13;5032622;28;20553;-51
2022/04/07 01:48:15;;;;;;;;;;;8.10;99.90;;;7.37;100.00;95737.50;5032199;28;20107;-48
2022/04/07 01:50:41;;;;;;;;;;;8.00;99.90;;;7.36;100.00;95734.97;5025973;28;19960;-49
2022/04/07 01:53:07;;;;;;;;;;;7.90;99.90;;;7.30;100.00;95743.97;5031353;28;19978;-50
2022/04/07 01:55:32;;;;;;;;;;;7.90;99.90;;;7.21;100.00;95733.94;5027051;28;19946;-47
2022/04/07 01:57:58;;;;;;;;;;;7.90;99.90;;;7.26;100.00;95737.19;5032483;28;19935;-47
2022/04/07 02:00:24;;;;;;;;;;;7.80;99.90;;;7.29;100.00;95741.44;5030979;28;19920;-47
2022/04/07 02:02:50;;;;;;;;;;;7.90;99.90;;;7.37;100.00;95740.13;5030422;28;19928;-48
2022/04/07 02:05:15;;;;;;;;;;;7.90;99.90;;;7.44;100.00;95735.41;5032032;28;19916;-48
2022/04/07 02:07:42;;;;;;;;;;;8.10;99.90;;;7.53;100.00;95729.69;5031347;28;21360;-48
2022/04/07 02:10:10;;;;;;;;;;;8.20;99.90;;;7.62;100.00;95712.63;5030118;28;20015;-50
2022/04/07 02:12:41;;;;;;;;;;;8.20;99.90;;;7.64;100.00;95721.25;5032545;28;19971;-50
2022/04/07 02:15:11;;;;;;;;;;;8.30;99.90;;;7.71;100.00;95721.81;5031482;28;20315;-48
2022/04/07 02:17:36;;;;;;;;;;;8.30;99.90;;;7.75;100.00;95721.56;5011344;28;19932;-47
2022/04/07 02:20:04;;;;;;;;;;;8.40;99.90;;;7.79;100.00;95720.47;5029429;28;20159;-48
2022/04/07 02:22:30;;;;;;;;;;;8.40;99.90;;;7.81;100.00;95713.38;5031549;28;19978;-48
2022/04/07 02:24:56;;;;;;;;;;;8.40;99.90;;;7.82;100.00;95717.69;5032099;28;19924;-49
2022/04/07 02:27:22;;;;;;;;;;;8.40;99.90;;;7.81;100.00;95717.78;5030766;28;19920;-51
2022/04/07 02:29:48;;;;;;;;;;;8.40;99.90;;;7.77;100.00;95711.84;5029597;28;20395;-49
2022/04/07 02:32:13;;;;;;;;;;;8.50;99.90;;;7.76;100.00;95704.88;5025131;28;20351;-46
2022/04/07 02:34:40;;;;;;;;;;;8.40;99.90;;;7.86;100.00;95714.88;5029925;28;19927;-51
2022/04/07 02:37:06;;;;;;;;;;;8.50;99.90;;;7.87;100.00;95712.19;5033760;28;19963;-49
2022/04/07 02:39:31;;;;;;;;;;;8.50;99.90;;;7.92;100.00;95728.53;5027674;28;20036;-50
2022/04/07 02:41:57;;;;;;;;;;;8.50;99.90;;;7.93;100.00;95711.88;5031381;28;20396;-48
2022/04/07 02:44:23;;;;;;;;;;;8.60;99.90;;;7.96;100.00;95711.69;5032607;28;19921;-47
2022/04/07 02:46:48;;;;;;;;;;;8.60;99.90;;;7.97;100.00;95704.69;5029517;28;19929;-49
2022/04/07 02:49:14;;;;;;;;;;;8.60;99.90;;;7.95;100.00;95694.25;5032872;28;19928;-48
2022/04/07 02:51:40;;;;;;;;;;;8.60;99.90;;;7.97;100.00;95710.78;5030579;28;19920;-48
2022/04/07 02:54:06;;;;;;;;;;;8.60;99.90;;;7.94;100.00;95702.22;5031438;28;19940;-48
2022/04/07 02:56:31;;;;;;;;;;;8.60;99.90;;;7.97;100.00;95702.91;5030834;28;19924;-51
2022/04/07 02:58:57;;;;;;;;;;;8.60;99.90;;;7.94;100.00;95691.72;5028408;28;19921;-49
2022/04/07 03:01:23;;;;;;;;;;;8.60;99.90;;;7.96;100.00;95684.59;5027705;28;21977;-49
2022/04/07 03:03:49;;;;;;;;;;;8.60;99.90;;;7.83;100.00;95663.41;5026996;28;19934;-50
2022/04/07 03:06:18;;;;;;;;;;;8.60;99.90;;;7.92;100.00;95689.16;5028032;28;20122;-51
2022/04/07 03:08:43;;;;;;;;;;;8.60;99.90;;;7.89;100.00;95688.50;5043530;28;19921;-52
2022/04/07 03:11:09;;;;;;;;;;;8.50;99.90;;;7.82;100.00;95677.47;5029413;28;19932;-47
2022/04/07 03:13:38;;;;;;;;;;;8.50;99.90;;;7.74;100.00;95672.63;5028341;28;19925;-50
2022/04/07 03:16:05;;;;;;;;;;;8.40;99.90;;;7.63;100.00;95677.59;5027512;28;19924;-48
2022/04/07 03:18:31;;;;;;;;;;;8.30;99.90;;;7.58;100.00;95675.22;5035236;28;20012;-48
2022/04/07 03:20:57;;;;;;;;;;;8.20;99.90;;;7.56;100.00;95676.25;5033718;28;19932;-50
2022/04/07 03:23:23;;;;;;;;;;;8.20;99.90;;;7.48;100.00;95683.66;5036413;28;19924;-50
2022/04/07 03:25:48;;;;;;;;;;;8.10;99.90;;;7.47;100.00;95682.81;5034150;28;19932;-51
2022/04/07 03:28:14;;;;;;;;;;;8.10;99.90;;;7.50;100.00;95677.41;5034827;28;20473;-50
2022/04/07 03:30:40;;;;;;;;;;;8.10;99.90;;;7.51;100.00;95667.75;5035807;28;19917;-50
2022/04/07 03:33:08;;;;;;;;;;;8.10;99.90;;;7.54;100.00;95667.59;5035825;28;19970;-52
2022/04/07 03:35:34;;;;;;;;;;;8.20;99.90;;;7.59;100.00;95658.56;5034274;28;20250;-51
2022/04/07 03:38:00;;;;;;;;;;;8.20;99.90;;;7.69;100.00;95660.69;5038024;28;20220;-51
2022/04/07 03:40:26;;;;;;;;;;;8.30;99.90;;;7.73;100.00;95649.94;5033483;28;19924;-49
2022/04/07 03:42:52;;;;;;;;;;;8.30;99.90;;;7.70;100.00;95647.50;5037092;28;19924;-49
2022/04/07 03:45:18;;;;;;;;;;;8.40;99.90;;;7.77;100.00;95651.47;5035486;28;19939;-52
2022/04/07 03:47:43;;;;;;;;;;;8.40;99.90;;;7.77;100.00;95642.75;5035766;28;20268;-51
2022/04/07 03:50:09;;;;;;;;;;;8.40;99.90;;;7.75;100.00;95637.59;5033317;28;19978;-49
2022/04/07 03:52:35;;;;;;;;;;;8.40;99.90;;;7.78;100.00;95633.97;5034733;28;20287;-49
2022/04/07 03:55:00;;;;;;;;;;;8.40;99.90;;;7.75;100.00;95632.34;5028806;28;19978;-49
2022/04/07 03:57:26;;;;;;;;;;;8.40;99.90;;;7.54;100.00;95609.91;5035888;28;19916;-47
2022/04/07 03:59:52;;;;;;;;;;;8.30;99.90;;;7.71;100.00;95622.09;5036065;28;19968;-49
2022/04/07 04:02:17;;;;;;;;;;;8.30;99.90;;;7.82;100.00;95632.84;5034636;28;20359;-50
2022/04/07 04:04:43;;;;;;;;;;;8.40;99.90;;;7.82;100.00;95628.47;5036319;28;19964;-49
2022/04/07 04:07:09;;;;;;;;;;;8.40;99.90;;;7.89;100.00;95615.84;5035641;28;19921;-49
2022/04/07 04:09:34;;;;;;;;;;;8.50;99.90;;;7.89;100.00;95620.25;5036059;28;19990;-49
2022/04/07 04:12:00;;;;;;;;;;;8.50;99.90;;;7.89;100.00;95612.38;5035692;28;19921;-48
2022/04/07 04:14:25;;;;;;;;;;;8.50;99.90;;;7.82;100.00;95604.84;5033633;28;19924;-48
2022/04/07 04:16:51;;;;;;;;;;;8.40;99.90;;;7.76;100.00;95602.53;5032354;28;19990;-50
2022/04/07 04:19:17;;;;;;;;;;;8.40;99.90;;;7.71;100.00;95601.94;5034023;28;20406;-50
2022/04/07 04:21:42;;;;;;;;;;;8.40;99.90;;;7.70;100.00;95595.03;5033950;28;19920;-51
2022/04/07 04:24:10;;;;;;;;;;;8.30;99.90;;;7.62;100.00;95592.78;5030138;28;19963;-48
2022/04/07 04:26:36;;;;;;;;;;;8.30;99.90;;;7.56;100.00;95579.19;5032192;28;20414;-51
2022/04/07 04:29:02;;;;;;;;;;;8.20;99.90;;;7.53;100.00;95579.34;5033961;28;20472;-49
2022/04/07 04:31:28;;;;;;;;;;;8.10;99.90;;;7.51;100.00;95582.03;5035267;28;20384;-53
2022/04/07 04:33:54;;;;;;;;;;;8.10;99.90;;;7.48;100.00;95594.47;5031294;28;19967;-51
2022/04/07 04:36:19;;;;;;;;;;;8.10;99.90;;;7.54;100.00;95589.75;5024478;28;20550;-51
2022/04/07 04:38:45;;;;;;;;;;;8.10;99.90;;;7.57;100.00;95596.59;5029625;28;19925;-51
2022/04/07 04:41:11;;;;;;;;;;;8.20;99.90;;;7.64;100.00;95597.97;5034144;28;20474;-52
2022/04/07 04:43:37;;;;;;;;;;;8.20;99.90;;;7.69;100.00;95598.56;5032013;28;20023;-51
2022/04/07 04:46:03;;;;;;;;;;;8.30;99.90;;;7.72;100.00;95587.91;5026279;28;19951;-50
2022/04/07 04:48:28;;;;;;;;;;;8.30;99.90;;;7.83;100.00;95584.69;5025073;28;20356;-53
2022/04/07 04:50:55;;;;;;;;;;;8.40;99.90;;;7.77;100.00;95570.13;5035805;28;20007;-51
2022/04/07 04:53:22;;;;;;;;;;;8.50;99.90;;;7.91;100.00;95584.25;5028506;28;20690;-50
2022/04/07 04:55:48;;;;;;;;;;;8.50;99.90;;;7.95;100.00;95578.78;5033012;28;20006;-52
2022/04/07 04:58:14;;;;;;;;;;;8.50;99.90;;;8.00;100.00;95584.63;5060734;22;19932;-46
2022/04/07 05:00:40;;;;;;;;;;;8.60;99.90;;;8.10;100.00;95582.31;5050014;28;20080;-45
2022/04/07 05:03:06;;;;;;;;;;;8.60;99.90;;;8.12;100.00;95585.69;5049784;28;19946;-47
2022/04/07 05:05:32;;;;;;;;;;;8.70;99.90;;;8.25;100.00;95574.50;5051373;28;20007;-48
2022/04/07 05:07:57;;;;;;;;;;;8.80;99.90;;;8.30;100.00;95565.41;5072624;28;19928;-44
2022/04/07 05:10:24;;;;;;;;;;;8.90;99.90;;;8.11;100.00;95539.38;5044857;28;19924;-44
2022/04/07 05:12:51;;;;;;;;;;;8.90;99.90;;;8.19;100.00;95575.69;5042007;28;20269;-44
2022/04/07 05:15:16;;;;;;;;;;;8.80;99.90;;;8.10;100.00;95561.31;5038788;28;19964;-46
2022/04/07 05:17:50;;;;;;;;;;;8.70;99.90;;;8.05;100.00;95571.22;5035778;28;20059;-44
2022/04/07 05:20:16;;;;;;;;;;;8.60;99.90;;;8.00;100.00;95565.38;5037199;28;20391;-45
2022/04/07 05:22:42;;;;;;;;;;;8.60;99.90;;;7.97;100.00;95573.44;5041384;28;20010;-46
2022/04/07 05:25:08;;;;;;;;;;;8.60;99.90;;;7.91;100.00;95550.16;5041985;28;20025;-45
2022/04/07 05:27:36;;;;;;;;;;;8.60;99.90;;;7.95;100.00;95573.53;5044812;28;19933;-48
2022/04/07 05:30:06;;;;;;;;;;;8.50;99.90;;;7.95;100.00;95573.53;5035863;28;19928;-49
2022/04/07 05:32:32;;;;;;;;;;;8.60;99.90;;;7.94;100.00;95545.56;5039983;28;23055;-45
2022/04/07 05:34:58;;;;;;;;;;;8.60;99.90;;;8.12;100.00;95571.72;5028619;28;19975;-49
2022/04/07 05:37:24;;;;;;;;;;;8.70;99.90;;;8.27;100.00;95570.84;5040167;28;19932;-47
2022/04/07 05:39:51;;;;;;;;;;;8.80;99.90;;;8.30;100.00;95565.41;5038578;28;20364;-48
2022/04/07 05:42:18;;;;;;;;;;;8.90;99.90;;;8.34;100.00;95561.69;5036207;28;19920;-45
2022/04/07 05:44:43;;;;;;;;;;;8.90;99.90;;;8.36;100.00;95548.47;5039697;28;20974;-45
2022/04/07 05:47:09;;;;;;;;;;;9.00;99.90;;;8.36;100.00;95533.56;5025832;28;19944;-46
2022/04/07 05:49:36;;;;;;;;;;;9.00;99.90;;;8.43;100.00;95539.31;5032294;28;20066;-45
2022/04/07 05:52:04;;;;;;;;;;;9.00;99.90;;;8.42;100.00;95537.66;5041195;28;19917;-46
2022/04/07 05:54:33;;;;;;;;;;;9.00;99.90;;;8.40;100.00;95531.63;5039696;28;19940;-44
2022/04/07 05:56:59;;;;;;;;;;;9.00;99.90;;;8.46;100.00;95526.03;5043352;28;19930;-45
2022/04/07 05:59:25;;;;;;;;;;;9.00;99.90;;;8.60;100.00;95526.06;5035155;28;19920;-49
2022/04/07 06:01:50;;;;;;;;;;;9.20;99.90;;;8.86;100.00;95505.25;5035958;28;19988;-47
2022/04/07 06:04:16;;;;;;;;;;;9.30;99.90;;;9.03;100.00;95500.78;5032187;28;19946;-45
2022/04/07 06:06:42;;;;;;;;;;;9.50;99.90;;;9.17;100.00;95504.25;5043308;28;20414;-45
2022/04/07 06:09:07;;;;;;;;;;;9.70;99.90;;;9.34;100.00;95482.13;5036846;28;19925;-45
2022/04/07 06:11:33;;;;;;;;;;;9.80;99.90;;;9.48;99.17;95496.22;5033508;28;19927;-45
2022/04/07 06:13:59;;;;;;;;;;;10.00;99.90;;;9.52;96.27;95476.66;5040785;28;19916;-46
2022/04/07 06:16:24;;;;;;;;;;;10.10;99.90;;;9.61;95.99;95451.56;5028818;28;19921;-47
2022/04/07 06:18:54;;;;;;;;;;;10.10;99.90;;;9.71;93.83;95457.94;5037810;28;20474;-44
2022/04/07 06:21:20;;;;;;;;;;;10.30;99.90;;;9.84;92.98;95461.44;5036051;28;19938;-46
2022/04/07 06:23:46;;;;;;;;;;;10.40;99.90;;;9.97;92.07;95464.13;5028889;28;19925;-48
2022/04/07 06:26:12;;;;;;;;;;;10.50;99.90;;;10.00;89.92;95458.66;5045267;28;19921;-48
2022/04/07 06:28:40;;;;;;;;;;;10.60;99.90;;;9.94;89.75;95449.38;5044454;28;20045;-44
2022/04/07 06:31:05;;;;;;;;;;;10.60;99.90;;;9.95;88.92;95476.53;5041636;28;19921;-46
2022/04/07 06:33:31;;;;;;;;;;;10.60;99.90;;;9.91;89.94;95462.72;5037758;28;19967;-44
2022/04/07 06:35:57;;;;;;;;;;;10.50;99.90;;;9.92;90.03;95468.84;5040611;28;19917;-47
2022/04/07 06:38:23;;;;;;;;;;;10.50;99.90;;;9.90;92.10;95462.81;5038075;28;19932;-48
2022/04/07 06:40:48;;;;;;;;;;;10.50;99.90;;;9.94;90.44;95464.31;5043057;28;20058;-45
2022/04/07 06:43:14;;;;;;;;;;;10.50;99.90;;;9.94;91.47;95459.91;5037386;28;20344;-44
2022/04/07 06:45:40;;;;;;;;;;;10.60;99.90;;;10.00;92.80;95458.66;5023278;28;20477;-48
2022/04/07 06:48:06;;;;;;;;;;;10.60;99.90;;;10.02;89.39;95442.75;5039238;28;19970;-45
2022/04/07 06:50:31;;;;;;;;;;;10.70;99.90;;;10.09;90.10;95450.16;5035871;28;19917;-45
2022/04/07 06:52:58;;;;;;;;;;;10.70;99.90;;;10.17;90.26;95465.44;5039278;28;20341;-48
2022/04/07 06:55:24;;;;;;;;;;;10.70;99.90;;;10.08;89.46;95456.34;5033807;28;19932;-45
2022/04/07 06:57:52;;;;;;;;;;;10.70;99.90;;;10.04;90.59;95446.97;5031339;28;20403;-45
2022/04/07 07:00:19;;;;;;;;;;;10.70;99.90;;;10.07;89.04;95459.09;5030195;28;19970;-44
2022/04/07 07:02:51;;;;;;;;;;;10.70;99.90;;;10.13;87.24;95450.78;5035295;28;19924;-45
2022/04/07 07:05:18;;;;;;;;;;;10.70;99.90;;;10.11;87.02;95457.94;5031276;28;19936;-46
2022/04/07 07:07:44;;;;;;;;;;;10.70;99.90;;;10.13;88.44;95443.72;5043312;28;20756;-45
2022/04/07 07:10:10;;;;;;;;;;;10.70;99.90;;;10.25;86.72;95446.50;5037809;28;19924;-47
2022/04/07 07:12:36;;;;;;;;;;;10.90;99.90;;;10.33;88.13;95420.50;5038130;28;19924;-44
2022/04/07 07:15:02;;;;;;;;;;;11.00;99.90;;;10.52;86.71;95428.00;5037475;28;20111;-46
2022/04/07 07:17:33;;;;;;;;;;;11.10;99.90;;;10.64;87.08;95426.31;5034825;28;20372;-45
2022/04/07 07:20:07;;;;;;;;;;;11.20;99.90;;;10.58;86.19;95395.13;5035360;28;19932;-51
2022/04/07 07:22:32;;;;;;;;;;;11.30;99.90;;;10.73;85.48;95409.91;5034332;28;20370;-44
2022/04/07 07:24:58;;;;;;;;;;;11.40;99.90;;;10.74;83.30;95411.56;5041248;28;19931;-47
2022/04/07 07:27:24;;;;;;;;;;;11.40;99.90;;;10.77;84.74;95395.53;5038687;28;20403;-46
2022/04/07 07:29:50;;;;;;;;;;;11.40;99.90;;;10.85;84.49;95397.63;5039999;28;20028;-46
2022/04/07 07:32:15;;;;;;;;;;;11.50;99.90;;;10.95;83.76;95377.59;5047764;28;19917;-44
2022/04/07 07:34:41;;;;;;;;;;;11.60;99.90;;;11.13;80.52;95401.81;5045649;28;20174;-47
2022/04/07 07:37:07;;;;;;;;;;;11.70;99.90;;;11.26;81.67;95394.69;5039627;28;19924;-45
2022/04/07 07:39:33;;;;;;;;;;;11.90;99.90;;;11.31;80.23;95389.09;5037680;28;20379;-45
2022/04/07 07:41:58;;;;;;;;;;;12.00;99.90;;;11.50;79.15;95393.88;5042128;28;19931;-48
2022/04/07 07:44:24;;;;;;;;;;;12.10;99.90;;;11.62;79.26;95387.69;5037634;28;19920;-46
2022/04/07 07:46:50;;;;;;;;;;;12.30;99.90;;;11.76;78.40;95364.75;5033888;28;19924;-45
2022/04/07 07:49:16;;;;;;;;;;;12.40;99.90;;;11.90;76.53;95392.75;5042327;28;19921;-45
2022/04/07 07:51:42;;;;;;;;;;;12.50;99.90;;;11.84;77.42;95379.06;5039771;28;20411;-47
2022/04/07 07:54:08;;;;;;;;;;;12.50;99.90;;;12.01;75.12;95367.25;5047535;28;19917;-46
2022/04/07 07:56:34;;;;;;;;;;;12.60;99.90;;;12.11;75.01;95363.91;5040833;28;19920;-44
2022/04/07 07:58:59;;;;;;;;;;;12.70;99.90;;;12.05;75.72;95378.44;5045531;28;20352;-47
2022/04/07 08:01:26;;;;;;;;;;;12.70;99.90;;;12.05;76.61;95377.59;5042740;28;19973;-49
2022/04/07 08:03:52;;;;;;;;;;;12.70;99.90;;;12.00;75.42;95359.44;5043580;28;19936;-46
2022/04/07 08:06:17;;;;;;;;;;;12.70;99.90;;;11.98;75.40;95356.91;5040541;28;20424;-47
2022/04/07 08:08:44;;;;;;;;;;;12.70;99.90;;;12.08;74.75;95354.44;5034639;28;20427;-45
2022/04/07 08:11:10;;;;;;;;;;;12.60;99.90;;;11.83;75.59;95315.78;5045284;28;19943;-46
2022/04/07 08:13:36;;;;;;;;;;;12.60;99.90;;;11.96;74.58;95337.69;5047726;28;19938;-45
2022/04/07 08:16:02;;;;;;;;;;;12.60;99.90;;;12.03;75.73;95327.53;5035571;28;20031;-49
2022/04/07 08:18:27;;;;;;;;;;;12.70;99.90;;;12.15;73.81;95320.44;5041427;28;20132;-52
2022/04/07 08:20:53;;;;;;;;;;;12.80;99.90;;;12.29;73.85;95317.63;5037060;28;20402;-51
2022/04/07 08:23:18;;;;;;;;;;;12.90;99.90;;;12.28;72.45;95310.63;5044432;28;19917;-46
2022/04/07 08:25:44;;;;;;;;;;;13.00;99.90;;;12.30;73.14;95324.56;5041689;28;19995;-48
2022/04/07 08:28:10;;;;;;;;;;;13.00;99.90;;;12.43;72.84;95299.84;5043297;28;19923;-50
2022/04/07 08:30:36;;;;;;;;;;;13.10;99.90;;;12.60;71.43;95304.66;5030036;28;19924;-49
2022/04/07 08:33:03;;;;;;;;;;;13.20;99.90;;;12.57;70.64;95316.31;5034334;28;20952;-48
2022/04/07 08:35:28;;;;;;;;;;;13.20;99.90;;;12.45;70.91;95311.13;5040595;28;19932;-48
2022/04/07 08:37:54;;;;;;;;;;;13.20;99.90;;;12.33;71.12;95321.69;5032321;28;20072;-46
2022/04/07 08:40:21;;;;;;;;;;;13.00;99.90;;;12.16;73.90;95311.56;5026237;28;19979;-49
2022/04/07 08:42:47;;;;;;;;;;;12.90;99.90;;;12.17;75.13;95303.53;5039981;28;19931;-49
2022/04/07 08:45:13;;;;;;;;;;;12.80;99.90;;;12.19;73.86;95306.06;5025711;28;20020;-48
2022/04/07 08:47:40;;;;;;;;;;;12.90;99.90;;;12.28;73.50;95301.88;5039215;28;19964;-50
2022/04/07 08:50:07;;;;;;;;;;;12.90;99.90;;;12.44;72.11;95299.72;5034618;28;20013;-47
2022/04/07 08:52:34;;;;;;;;;;;13.10;99.90;;;12.59;69.23;95298.50;5036035;28;19935;-46
2022/04/07 08:54:59;;;;;;;;;;;13.20;99.90;;;12.57;70.87;95258.13;5039311;28;20352;-47
2022/04/07 08:57:26;;;;;;;;;;;13.20;99.90;;;12.52;70.28;95238.31;5044680;28;19921;-51
2022/04/07 08:59:51;;;;;;;;;;;13.30;99.90;;;12.64;69.33;95257.66;5033452;28;19917;-47
2022/04/07 09:02:17;;;;;;;;;;;13.20;99.90;;;12.55;69.86;95259.22;5040533;28;19916;-50
2022/04/07 09:04:44;;;;;;;;;;;13.20;99.90;;;12.47;70.83;95275.72;5035710;28;20236;-49
2022/04/07 09:07:13;;;;;;;;;;;13.10;99.90;;;12.50;68.81;95272.78;5039685;28;19932;-58
2022/04/07 09:09:38;;;;;;;;;;;13.10;99.90;;;12.51;69.10;95241.94;5038373;28;19929;-57
2022/04/07 09:12:05;;;;;;;;;;;13.10;99.90;;;12.51;69.36;95252.50;5038161;28;19925;-58
2022/04/07 09:14:34;;;;;;;;;;;13.10;99.90;;;12.49;68.47;95259.69;5040777;28;19924;-57
2022/04/07 09:17:00;;;;;;;;;;;13.20;99.90;;;12.43;69.23;95252.25;5029793;28;20616;-57
2022/04/07 09:19:28;;;;;;;;;;;13.10;99.90;;;12.55;68.42;95244.19;5026335;28;19925;-56
2022/04/07 09:22:08;;;;;;;;;;;13.10;99.90;;;12.53;69.43;95253.22;5027992;28;20410;-57
2022/04/07 09:24:44;;;;;;;;;;;13.20;99.90;;;12.61;68.17;95240.22;5024203;28;20338;-56
2022/04/07 09:27:10;;;;;;;;;;;13.20;99.90;;;12.59;70.39;95250.91;5035476;28;19920;-57
2022/04/07 09:29:41;;;;;;;;;;;13.20;99.90;;;12.48;69.84;95237.72;5032150;28;19989;-57
2022/04/07 09:32:16;;;;;;;;;;;13.10;99.90;;;12.32;70.41;95242.53;5033820;28;20445;-55
2022/04/07 09:34:43;;;;;;;;;;;13.00;99.90;;;12.30;71.52;95240.00;5024310;28;20204;-53
2022/04/07 09:37:10;;;;;;;;;;;12.90;99.90;;;12.35;72.86;95240.50;5020044;28;23137;-56
2022/04/07 09:39:39;;;;;;;;;;;12.90;99.90;;;12.26;76.85;95243.00;5017280;28;20011;-55
2022/04/07 09:42:29;;;;;;;;;;;12.90;99.90;;;12.22;81.65;95234.47;5034853;28;19956;-57
2022/04/07 09:44:57;;;;;;;;;;;12.80;99.90;;;12.15;79.85;95244.69;5028291;28;20183;-54
2022/04/07 09:47:23;;;;;;;;;;;12.80;99.90;;;12.14;79.67;95229.78;5015791;28;20131;-55
2022/04/07 09:49:49;;;;;;;;;;;12.70;99.90;;;12.17;78.21;95204.94;5035108;28;19920;-54
2022/04/07 09:52:24;;;;;;;;;;;12.80;99.90;;;12.39;76.59;95188.22;5030472;28;20384;-56
2022/04/07 09:54:51;;;;;;;;;;;13.00;99.90;;;12.49;77.12;95210.34;5043869;28;20349;-54
2022/04/07 09:57:19;;;;;;;;;;;13.10;99.90;;;12.82;75.75;95184.78;5041306;28;20395;-56
2022/04/07 09:59:46;;;;;;;;;;;13.40;99.90;;;13.11;73.92;95181.56;5036816;28;19932;-55
2022/04/07 10:02:11;;;;;;;;;;;13.70;99.90;;;13.33;73.83;95191.22;5041119;28;19928;-52
2022/04/07 10:04:38;;;;;;;;;;;14.00;99.90;;;13.45;71.76;95176.97;5027490;28;19946;-54
2022/04/07 10:07:05;;;;;;;;;;;14.10;99.90;;;13.51;70.04;95171.19;5028137;28;19963;-57
2022/04/07 10:09:31;;;;;;;;;;;14.20;99.90;;;13.77;69.08;95164.63;5035495;28;19932;-57
2022/04/07 10:11:58;;;;;;;;;;;14.40;99.90;;;13.86;67.34;95162.03;5034318;28;19932;-56
2022/04/07 10:14:24;;;;;;;;;;;14.60;99.90;;;13.86;66.38;95167.34;5035310;28;19935;-56
2022/04/07 10:16:50;;;;;;;;;;;14.60;99.90;;;13.97;66.13;95173.53;5035188;28;20266;-52
2022/04/07 10:19:28;;;;;;;;;;;14.60;99.90;;;13.92;65.44;95164.13;5036187;28;20003;-57
2022/04/07 10:22:18;;;;;;;;;;;14.70;99.90;;;14.06;64.61;95162.97;5037754;28;19928;-58
2022/04/07 10:24:49;;;;;;;;;;;14.70;99.90;;;14.04;62.67;95156.97;5040601;28;20097;-52
2022/04/07 10:27:15;;;;;;;;;;;14.80;99.90;;;14.01;63.19;95153.72;5038565;28;19936;-52
2022/04/07 10:30:01;;;;;;;;;;;14.80;99.90;;;14.33;62.64;95137.66;5038559;28;19920;-47
2022/04/07 10:32:43;;;;;;;;;;;15.00;99.90;;;14.52;61.60;95137.72;5036789;28;20023;-48
2022/04/07 10:35:10;;;;;;;;;;;15.20;99.90;;;14.61;58.98;95128.16;5038316;28;19925;-56
2022/04/07 10:37:49;;;;;;;;;;;15.40;99.90;;;14.61;60.12;95130.81;5034170;28;19924;-51
2022/04/07 10:40:34;;;;;;;;;;;15.30;99.90;;;14.76;59.42;95128.56;5036348;28;20490;-53
2022/04/07 10:43:17;;;;;;;;;;;15.50;99.90;;;14.79;59.77;95109.75;5036365;28;19928;-51
2022/04/07 10:45:44;;;;;;;;;;;15.40;99.90;;;14.46;60.96;95118.88;5040053;28;20152;-52
2022/04/07 10:48:28;;;;;;;;;;;15.30;99.90;;;14.29;61.26;95107.94;5035430;28;19974;-53
2022/04/07 10:50:54;;;;;;;;;;;15.10;99.90;;;14.28;61.21;95110.72;5033070;28;19947;-55
2022/04/07 10:53:27;;;;;;;;;;;15.00;99.90;;;14.24;62.10;95104.84;5038867;28;20384;-50
2022/04/07 10:56:00;;;;;;;;;;;15.00;99.90;;;14.31;61.67;95089.25;5032952;28;19987;-56
2022/04/07 10:58:49;;;;;;;;;;;15.10;99.90;;;14.37;61.32;95101.94;5031482;28;21942;-52
2022/04/07 11:01:31;;;;;;;;;;;15.00;99.90;;;14.42;61.82;95088.31;5037067;28;20414;-51
2022/04/07 11:04:26;;;;;;;;;;;15.10;99.90;;;14.69;59.73;95092.97;5038875;28;20099;-52
2022/04/07 11:07:04;;;;;;;;;;;15.30;99.90;;;14.74;60.67;95079.31;5055675;22;20378;-46
2022/04/07 11:09:55;;;;;;;;;;;15.40;99.90;;;14.65;60.25;95091.59;5060623;28;19932;-48
2022/04/07 11:12:23;;;;;;;;;;;15.30;99.90;;;14.64;60.03;95080.13;5071402;28;20569;-51
2022/04/07 11:14:50;;;;;;;;;;;15.30;99.90;;;14.66;60.84;95067.56;5068970;28;20066;-48
2022/04/07 11:17:28;;;;;;;;;;;15.40;99.90;;;14.86;60.17;95100.25;5061436;28;19963;-51
2022/04/07 11:20:16;;;;;;;;;;;15.50;99.90;;;14.88;58.33;95069.09;5050044;28;20001;-48
2022/04/07 11:22:50;;;;;;;;;;;15.50;99.90;;;14.66;58.43;95075.53;5055366;28;19924;-51